sensor_id;sensor_type;location;lat;lon;timestamp;P1;durP1;ratioP1;P2;durP2;ratioP2
42600;SDS011;28229;48.856;9.088;2023-05-10T00:00:53;0.27;;;0.27;;
42600;SDS011;28229;48.856;9.088;2023-05-10T00:03:19;0.50;;;0.40;;
42600;SDS011;28229;48.856;9.088;2023-05-10T00:05:45;0.77;;;0.30;;
42600;SDS011;28229;48.856;9.088;2023-05-10T00:08:11;0.87;;;0.23;;
42600;SDS011;28229;48.856;9.088;2023-05-10T00:10:37;0.30;;;0.30;;
42600;SDS011;28229;48.856;9.088;2023-05-10T00:13:04;0.23;;;0.10;;
42600;SDS011;28229;48.856;9.088;2023-05-10T00:15:30;0.30;;;0.20;;
42600;SDS011;28229;48.856;9.088;2023-05-10T00:17:56;0.17;;;0.10;;
42600;SDS011;28229;48.856;9.088;2023-05-10T00:20:23;0.50;;;0.30;;
42600;SDS011;28229;48.856;9.088;2023-05-10T00:22:49;1.67;;;0.40;;
42600;SDS011;28229;48.856;9.088;2023-05-10T00:25:15;0.20;;;0.20;;
42600;SDS011;28229;48.856;9.088;2023-05-10T00:27:41;1.70;;;0.30;;
42600;SDS011;28229;48.856;9.088;2023-05-10T00:30:07;0.77;;;0.20;;
42600;SDS011;28229;48.856;9.088;2023-05-10T00:32:35;0.57;;;0.30;;
42600;SDS011;28229;48.856;9.088;2023-05-10T00:35:01;0.10;;;0.10;;
42600;SDS011;28229;48.856;9.088;2023-05-10T00:37:27;0.20;;;0.20;;
42600;SDS011;28229;48.856;9.088;2023-05-10T00:39:54;0.67;;;0.20;;
42600;SDS011;28229;48.856;9.088;2023-05-10T00:42:20;0.37;;;0.30;;
42600;SDS011;28229;48.856;9.088;2023-05-10T00:44:47;0.27;;;0.17;;
42600;SDS011;28229;48.856;9.088;2023-05-10T00:47:13;0.20;;;0.20;;
42600;SDS011;28229;48.856;9.088;2023-05-10T00:49:40;0.30;;;0.30;;
42600;SDS011;28229;48.856;9.088;2023-05-10T00:52:07;0.60;;;0.33;;
42600;SDS011;28229;48.856;9.088;2023-05-10T00:54:34;0.70;;;0.20;;
42600;SDS011;28229;48.856;9.088;2023-05-10T00:57:00;0.20;;;0.20;;
42600;SDS011;28229;48.856;9.088;2023-05-10T00:59:27;0.30;;;0.30;;
42600;SDS011;28229;48.856;9.088;2023-05-10T01:01:54;0.93;;;0.40;;
42600;SDS011;28229;48.856;9.088;2023-05-10T01:04:20;0.50;;;0.50;;
42600;SDS011;28229;48.856;9.088;2023-05-10T01:06:51;0.50;;;0.50;;
42600;SDS011;28229;48.856;9.088;2023-05-10T01:09:19;0.47;;;0.47;;
42600;SDS011;28229;48.856;9.088;2023-05-10T01:11:47;0.60;;;0.60;;
42600;SDS011;28229;48.856;9.088;2023-05-10T01:14:14;0.40;;;0.40;;
42600;SDS011;28229;48.856;9.088;2023-05-10T01:16:43;0.50;;;0.50;;
42600;SDS011;28229;48.856;9.088;2023-05-10T01:19:24;1.07;;;0.60;;
42600;SDS011;28229;48.856;9.088;2023-05-10T01:33:19;0.67;;;0.67;;
42600;SDS011;28229;48.856;9.088;2023-05-10T01:40:55;0.70;;;0.70;;
42600;SDS011;28229;48.856;9.088;2023-05-10T01:43:43;0.87;;;0.87;;
42600;SDS011;28229;48.856;9.088;2023-05-10T01:46:24;0.90;;;0.90;;
42600;SDS011;28229;48.856;9.088;2023-05-10T01:48:56;1.03;;;0.90;;
42600;SDS011;28229;48.856;9.088;2023-05-10T01:51:27;0.80;;;0.80;;
42600;SDS011;28229;48.856;9.088;2023-05-10T01:54:00;0.80;;;0.80;;
42600;SDS011;28229;48.856;9.088;2023-05-10T01:56:28;0.70;;;0.70;;
42600;SDS011;28229;48.856;9.088;2023-05-10T01:58:56;1.47;;;0.70;;
42600;SDS011;28229;48.856;9.088;2023-05-10T02:01:25;0.63;;;0.63;;
42600;SDS011;28229;48.856;9.088;2023-05-10T02:03:53;0.70;;;0.70;;
42600;SDS011;28229;48.856;9.088;2023-05-10T02:06:21;0.77;;;0.70;;
42600;SDS011;28229;48.856;9.088;2023-05-10T02:08:49;0.80;;;0.80;;
42600;SDS011;28229;48.856;9.088;2023-05-10T02:11:18;0.97;;;0.90;;
42600;SDS011;28229;48.856;9.088;2023-05-10T02:13:47;1.30;;;0.80;;
42600;SDS011;28229;48.856;9.088;2023-05-10T02:16:15;0.63;;;0.63;;
42600;SDS011;28229;48.856;9.088;2023-05-10T02:18:43;0.73;;;0.73;;
42600;SDS011;28229;48.856;9.088;2023-05-10T02:21:14;0.70;;;0.70;;
42600;SDS011;28229;48.856;9.088;2023-05-10T02:23:43;1.03;;;0.73;;
42600;SDS011;28229;48.856;9.088;2023-05-10T02:26:11;1.00;;;0.90;;
42600;SDS011;28229;48.856;9.088;2023-05-10T02:28:40;1.10;;;0.90;;
42600;SDS011;28229;48.856;9.088;2023-05-10T02:31:07;0.90;;;0.90;;
42600;SDS011;28229;48.856;9.088;2023-05-10T02:33:38;1.07;;;0.87;;
42600;SDS011;28229;48.856;9.088;2023-05-10T02:36:07;1.00;;;0.97;;
42600;SDS011;28229;48.856;9.088;2023-05-10T02:38:36;0.97;;;0.93;;
42600;SDS011;28229;48.856;9.088;2023-05-10T02:41:03;1.17;;;1.10;;
42600;SDS011;28229;48.856;9.088;2023-05-10T02:43:32;0.90;;;0.90;;
42600;SDS011;28229;48.856;9.088;2023-05-10T02:45:59;0.87;;;0.87;;
42600;SDS011;28229;48.856;9.088;2023-05-10T02:48:25;1.17;;;0.97;;
42600;SDS011;28229;48.856;9.088;2023-05-10T02:50:52;0.90;;;0.90;;
42600;SDS011;28229;48.856;9.088;2023-05-10T02:53:22;1.60;;;1.30;;
42600;SDS011;28229;48.856;9.088;2023-05-10T02:55:56;1.73;;;1.30;;
42600;SDS011;28229;48.856;9.088;2023-05-10T02:58:25;1.23;;;1.23;;
42600;SDS011;28229;48.856;9.088;2023-05-10T03:00:52;1.50;;;1.40;;
42600;SDS011;28229;48.856;9.088;2023-05-10T03:03:21;1.53;;;1.30;;
42600;SDS011;28229;48.856;9.088;2023-05-10T03:05:49;1.50;;;1.40;;
42600;SDS011;28229;48.856;9.088;2023-05-10T03:08:15;1.40;;;1.40;;
42600;SDS011;28229;48.856;9.088;2023-05-10T03:10:47;1.90;;;1.70;;
42600;SDS011;28229;48.856;9.088;2023-05-10T03:13:29;1.77;;;1.67;;
42600;SDS011;28229;48.856;9.088;2023-05-10T03:16:05;2.73;;;1.77;;
42600;SDS011;28229;48.856;9.088;2023-05-10T03:21:41;2.13;;;1.93;;
42600;SDS011;28229;48.856;9.088;2023-05-10T03:24:11;2.30;;;2.10;;
42600;SDS011;28229;48.856;9.088;2023-05-10T03:26:42;2.00;;;1.90;;
42600;SDS011;28229;48.856;9.088;2023-05-10T03:29:15;1.80;;;1.70;;
42600;SDS011;28229;48.856;9.088;2023-05-10T03:31:41;1.67;;;1.43;;
42600;SDS011;28229;48.856;9.088;2023-05-10T03:34:07;1.77;;;1.67;;
42600;SDS011;28229;48.856;9.088;2023-05-10T03:36:34;1.90;;;1.50;;
42600;SDS011;28229;48.856;9.088;2023-05-10T03:39:00;1.67;;;1.40;;
42600;SDS011;28229;48.856;9.088;2023-05-10T03:41:27;1.70;;;1.60;;
42600;SDS011;28229;48.856;9.088;2023-05-10T03:43:53;1.70;;;1.47;;
42600;SDS011;28229;48.856;9.088;2023-05-10T03:46:20;1.87;;;1.50;;
42600;SDS011;28229;48.856;9.088;2023-05-10T03:48:46;2.13;;;1.70;;
42600;SDS011;28229;48.856;9.088;2023-05-10T03:51:12;2.87;;;1.50;;
42600;SDS011;28229;48.856;9.088;2023-05-10T03:53:39;1.93;;;1.80;;
42600;SDS011;28229;48.856;9.088;2023-05-10T03:56:05;2.50;;;1.80;;
42600;SDS011;28229;48.856;9.088;2023-05-10T03:58:32;1.77;;;1.67;;
42600;SDS011;28229;48.856;9.088;2023-05-10T04:00:58;2.30;;;1.60;;
42600;SDS011;28229;48.856;9.088;2023-05-10T04:03:24;2.40;;;1.50;;
42600;SDS011;28229;48.856;9.088;2023-05-10T04:05:58;1.80;;;1.70;;
42600;SDS011;28229;48.856;9.088;2023-05-10T04:08:26;1.50;;;1.37;;
42600;SDS011;28229;48.856;9.088;2023-05-10T04:10:53;2.30;;;1.60;;
42600;SDS011;28229;48.856;9.088;2023-05-10T04:13:19;2.83;;;1.60;;
42600;SDS011;28229;48.856;9.088;2023-05-10T04:15:48;1.73;;;1.63;;
42600;SDS011;28229;48.856;9.088;2023-05-10T04:18:14;1.90;;;1.80;;
42600;SDS011;28229;48.856;9.088;2023-05-10T04:20:40;1.80;;;1.60;;
42600;SDS011;28229;48.856;9.088;2023-05-10T04:23:06;1.90;;;1.70;;
42600;SDS011;28229;48.856;9.088;2023-05-10T04:25:33;2.23;;;1.80;;
42600;SDS011;28229;48.856;9.088;2023-05-10T04:28:01;1.47;;;1.47;;
42600;SDS011;28229;48.856;9.088;2023-05-10T04:30:27;2.80;;;1.60;;
42600;SDS011;28229;48.856;9.088;2023-05-10T04:32:55;1.57;;;1.53;;
42600;SDS011;28229;48.856;9.088;2023-05-10T04:35:21;1.70;;;1.60;;
42600;SDS011;28229;48.856;9.088;2023-05-10T04:37:47;1.40;;;1.30;;
42600;SDS011;28229;48.856;9.088;2023-05-10T04:40:13;2.10;;;1.60;;
42600;SDS011;28229;48.856;9.088;2023-05-10T04:42:39;1.50;;;1.37;;
42600;SDS011;28229;48.856;9.088;2023-05-10T04:45:07;1.70;;;1.60;;
42600;SDS011;28229;48.856;9.088;2023-05-10T04:47:35;1.57;;;1.47;;
42600;SDS011;28229;48.856;9.088;2023-05-10T04:50:05;2.50;;;1.50;;
42600;SDS011;28229;48.856;9.088;2023-05-10T04:52:32;1.80;;;1.50;;
42600;SDS011;28229;48.856;9.088;2023-05-10T04:54:58;2.13;;;1.50;;
42600;SDS011;28229;48.856;9.088;2023-05-10T04:57:24;1.53;;;1.43;;
42600;SDS011;28229;48.856;9.088;2023-05-10T04:59:51;2.63;;;1.57;;
42600;SDS011;28229;48.856;9.088;2023-05-10T05:02:17;2.37;;;1.57;;
42600;SDS011;28229;48.856;9.088;2023-05-10T05:04:43;3.03;;;2.03;;
42600;SDS011;28229;48.856;9.088;2023-05-10T05:07:10;1.90;;;1.80;;
42600;SDS011;28229;48.856;9.088;2023-05-10T05:09:36;1.90;;;1.80;;
42600;SDS011;28229;48.856;9.088;2023-05-10T05:12:02;1.73;;;1.63;;
42600;SDS011;28229;48.856;9.088;2023-05-10T05:14:29;1.90;;;1.73;;
42600;SDS011;28229;48.856;9.088;2023-05-10T05:16:55;1.80;;;1.70;;
42600;SDS011;28229;48.856;9.088;2023-05-10T05:19:21;2.13;;;1.60;;
42600;SDS011;28229;48.856;9.088;2023-05-10T05:21:48;1.80;;;1.70;;
42600;SDS011;28229;48.856;9.088;2023-05-10T05:24:14;1.60;;;1.50;;
42600;SDS011;28229;48.856;9.088;2023-05-10T05:26:40;1.60;;;1.50;;
42600;SDS011;28229;48.856;9.088;2023-05-10T05:29:07;1.67;;;1.47;;
42600;SDS011;28229;48.856;9.088;2023-05-10T05:31:33;1.60;;;1.50;;
42600;SDS011;28229;48.856;9.088;2023-05-10T05:33:59;2.03;;;1.67;;
42600;SDS011;28229;48.856;9.088;2023-05-10T05:36:25;1.70;;;1.50;;
42600;SDS011;28229;48.856;9.088;2023-05-10T05:38:51;1.63;;;1.53;;
42600;SDS011;28229;48.856;9.088;2023-05-10T05:41:18;1.60;;;1.50;;
42600;SDS011;28229;48.856;9.088;2023-05-10T05:43:44;2.83;;;2.00;;
42600;SDS011;28229;48.856;9.088;2023-05-10T05:46:10;1.80;;;1.70;;
42600;SDS011;28229;48.856;9.088;2023-05-10T05:48:36;2.70;;;1.90;;
42600;SDS011;28229;48.856;9.088;2023-05-10T05:51:02;1.80;;;1.70;;
42600;SDS011;28229;48.856;9.088;2023-05-10T05:53:29;2.20;;;2.00;;
42600;SDS011;28229;48.856;9.088;2023-05-10T05:55:55;2.10;;;2.00;;
42600;SDS011;28229;48.856;9.088;2023-05-10T05:58:24;2.50;;;1.83;;
42600;SDS011;28229;48.856;9.088;2023-05-10T06:00:51;2.17;;;1.80;;
42600;SDS011;28229;48.856;9.088;2023-05-10T06:03:18;2.80;;;2.37;;
42600;SDS011;28229;48.856;9.088;2023-05-10T06:05:44;2.13;;;2.00;;
42600;SDS011;28229;48.856;9.088;2023-05-10T06:08:10;2.03;;;1.90;;
42600;SDS011;28229;48.856;9.088;2023-05-10T06:10:36;2.27;;;2.10;;
42600;SDS011;28229;48.856;9.088;2023-05-10T06:13:03;2.20;;;2.10;;
42600;SDS011;28229;48.856;9.088;2023-05-10T06:15:29;2.23;;;2.00;;
42600;SDS011;28229;48.856;9.088;2023-05-10T06:17:55;2.37;;;2.10;;
42600;SDS011;28229;48.856;9.088;2023-05-10T06:20:21;4.47;;;2.20;;
42600;SDS011;28229;48.856;9.088;2023-05-10T06:22:47;2.53;;;2.20;;
42600;SDS011;28229;48.856;9.088;2023-05-10T06:25:17;2.97;;;2.10;;
42600;SDS011;28229;48.856;9.088;2023-05-10T06:27:46;2.33;;;2.10;;
42600;SDS011;28229;48.856;9.088;2023-05-10T06:30:12;5.33;;;2.00;;
42600;SDS011;28229;48.856;9.088;2023-05-10T06:32:40;1.87;;;1.77;;
42600;SDS011;28229;48.856;9.088;2023-05-10T06:35:07;2.83;;;1.80;;
42600;SDS011;28229;48.856;9.088;2023-05-10T06:37:34;2.93;;;2.30;;
42600;SDS011;28229;48.856;9.088;2023-05-10T06:40:00;10.13;;;8.03;;
42600;SDS011;28229;48.856;9.088;2023-05-10T06:42:27;3.17;;;2.93;;
42600;SDS011;28229;48.856;9.088;2023-05-10T06:44:53;2.20;;;2.00;;
42600;SDS011;28229;48.856;9.088;2023-05-10T06:47:19;3.40;;;2.20;;
42600;SDS011;28229;48.856;9.088;2023-05-10T06:49:45;2.07;;;1.97;;
42600;SDS011;28229;48.856;9.088;2023-05-10T06:52:12;4.27;;;2.50;;
42600;SDS011;28229;48.856;9.088;2023-05-10T06:54:38;2.13;;;2.03;;
42600;SDS011;28229;48.856;9.088;2023-05-10T06:57:04;2.07;;;1.70;;
42600;SDS011;28229;48.856;9.088;2023-05-10T06:59:30;4.40;;;1.73;;
42600;SDS011;28229;48.856;9.088;2023-05-10T07:01:56;2.97;;;1.80;;
42600;SDS011;28229;48.856;9.088;2023-05-10T07:04:22;1.50;;;1.40;;
42600;SDS011;28229;48.856;9.088;2023-05-10T07:06:49;1.77;;;1.67;;
42600;SDS011;28229;48.856;9.088;2023-05-10T07:09:15;2.90;;;2.03;;
42600;SDS011;28229;48.856;9.088;2023-05-10T07:11:41;3.03;;;1.50;;
42600;SDS011;28229;48.856;9.088;2023-05-10T07:14:07;1.50;;;1.40;;
42600;SDS011;28229;48.856;9.088;2023-05-10T07:16:33;2.20;;;1.43;;
42600;SDS011;28229;48.856;9.088;2023-05-10T07:18:59;1.90;;;1.47;;
42600;SDS011;28229;48.856;9.088;2023-05-10T07:21:26;2.73;;;1.50;;
42600;SDS011;28229;48.856;9.088;2023-05-10T07:23:54;1.57;;;1.47;;
42600;SDS011;28229;48.856;9.088;2023-05-10T07:26:20;1.87;;;1.77;;
42600;SDS011;28229;48.856;9.088;2023-05-10T07:28:47;1.40;;;1.30;;
42600;SDS011;28229;48.856;9.088;2023-05-10T07:34:04;1.40;;;1.17;;
42600;SDS011;28229;48.856;9.088;2023-05-10T07:36:30;1.53;;;1.27;;
42600;SDS011;28229;48.856;9.088;2023-05-10T07:38:56;1.03;;;1.03;;
42600;SDS011;28229;48.856;9.088;2023-05-10T07:41:23;1.93;;;1.00;;
42600;SDS011;28229;48.856;9.088;2023-05-10T07:43:49;1.57;;;1.07;;
42600;SDS011;28229;48.856;9.088;2023-05-10T07:46:16;3.73;;;1.20;;
42600;SDS011;28229;48.856;9.088;2023-05-10T07:48:42;1.10;;;1.03;;
42600;SDS011;28229;48.856;9.088;2023-05-10T07:51:08;0.90;;;0.90;;
42600;SDS011;28229;48.856;9.088;2023-05-10T07:53:35;1.13;;;1.00;;
42600;SDS011;28229;48.856;9.088;2023-05-10T07:59:02;0.70;;;0.70;;
42600;SDS011;28229;48.856;9.088;2023-05-10T08:01:33;1.70;;;1.00;;
42600;SDS011;28229;48.856;9.088;2023-05-10T08:04:00;0.90;;;0.90;;
42600;SDS011;28229;48.856;9.088;2023-05-10T08:06:27;0.60;;;0.60;;
42600;SDS011;28229;48.856;9.088;2023-05-10T08:08:55;0.50;;;0.50;;
42600;SDS011;28229;48.856;9.088;2023-05-10T08:11:22;0.70;;;0.70;;
42600;SDS011;28229;48.856;9.088;2023-05-10T08:13:49;0.83;;;0.60;;
42600;SDS011;28229;48.856;9.088;2023-05-10T08:16:16;0.50;;;0.50;;
42600;SDS011;28229;48.856;9.088;2023-05-10T08:18:43;1.03;;;0.60;;
42600;SDS011;28229;48.856;9.088;2023-05-10T08:21:11;0.77;;;0.60;;
42600;SDS011;28229;48.856;9.088;2023-05-10T08:23:37;0.50;;;0.50;;
42600;SDS011;28229;48.856;9.088;2023-05-10T08:26:03;0.63;;;0.63;;
42600;SDS011;28229;48.856;9.088;2023-05-10T08:28:29;2.47;;;0.70;;
42600;SDS011;28229;48.856;9.088;2023-05-10T08:30:56;0.90;;;0.43;;
42600;SDS011;28229;48.856;9.088;2023-05-10T08:33:22;0.50;;;0.50;;
42600;SDS011;28229;48.856;9.088;2023-05-10T08:35:48;1.20;;;0.40;;
42600;SDS011;28229;48.856;9.088;2023-05-10T08:38:14;0.40;;;0.40;;
42600;SDS011;28229;48.856;9.088;2023-05-10T08:40:41;1.43;;;0.50;;
42600;SDS011;28229;48.856;9.088;2023-05-10T08:43:12;1.97;;;0.50;;
42600;SDS011;28229;48.856;9.088;2023-05-10T08:45:42;0.73;;;0.40;;
42600;SDS011;28229;48.856;9.088;2023-05-10T08:48:11;1.33;;;0.60;;
42600;SDS011;28229;48.856;9.088;2023-05-10T08:50:38;0.50;;;0.50;;
42600;SDS011;28229;48.856;9.088;2023-05-10T08:53:06;0.43;;;0.43;;
42600;SDS011;28229;48.856;9.088;2023-05-10T08:55:36;0.77;;;0.47;;
42600;SDS011;28229;48.856;9.088;2023-05-10T08:58:04;0.40;;;0.40;;
42600;SDS011;28229;48.856;9.088;2023-05-10T09:00:31;0.40;;;0.40;;
42600;SDS011;28229;48.856;9.088;2023-05-10T09:02:58;0.43;;;0.40;;
42600;SDS011;28229;48.856;9.088;2023-05-10T09:05:25;0.40;;;0.40;;
42600;SDS011;28229;48.856;9.088;2023-05-10T09:07:51;0.70;;;0.47;;
42600;SDS011;28229;48.856;9.088;2023-05-10T09:10:18;0.57;;;0.50;;
42600;SDS011;28229;48.856;9.088;2023-05-10T09:12:45;2.43;;;0.60;;
42600;SDS011;28229;48.856;9.088;2023-05-10T09:15:11;0.93;;;0.60;;
42600;SDS011;28229;48.856;9.088;2023-05-10T09:17:41;1.20;;;0.57;;
42600;SDS011;28229;48.856;9.088;2023-05-10T09:22:55;2.90;;;1.50;;
42600;SDS011;28229;48.856;9.088;2023-05-10T09:25:21;1.10;;;1.00;;
42600;SDS011;28229;48.856;9.088;2023-05-10T09:27:48;1.53;;;1.20;;
42600;SDS011;28229;48.856;9.088;2023-05-10T09:30:23;0.90;;;0.90;;
42600;SDS011;28229;48.856;9.088;2023-05-10T09:32:53;0.93;;;0.70;;
42600;SDS011;28229;48.856;9.088;2023-05-10T09:35:21;0.60;;;0.60;;
42600;SDS011;28229;48.856;9.088;2023-05-10T09:37:50;1.13;;;0.63;;
42600;SDS011;28229;48.856;9.088;2023-05-10T09:40:18;0.90;;;0.90;;
42600;SDS011;28229;48.856;9.088;2023-05-10T09:45:18;0.83;;;0.83;;
42600;SDS011;28229;48.856;9.088;2023-05-10T09:47:45;0.80;;;0.80;;
42600;SDS011;28229;48.856;9.088;2023-05-10T09:50:11;0.60;;;0.60;;
42600;SDS011;28229;48.856;9.088;2023-05-10T09:52:47;0.83;;;0.80;;
42600;SDS011;28229;48.856;9.088;2023-05-10T09:55:19;1.77;;;1.00;;
42600;SDS011;28229;48.856;9.088;2023-05-10T09:57:48;0.80;;;0.80;;
42600;SDS011;28229;48.856;9.088;2023-05-10T10:00:19;1.23;;;0.50;;
42600;SDS011;28229;48.856;9.088;2023-05-10T10:02:47;1.37;;;0.70;;
42600;SDS011;28229;48.856;9.088;2023-05-10T10:05:20;0.60;;;0.60;;
42600;SDS011;28229;48.856;9.088;2023-05-10T10:07:46;1.43;;;0.70;;
42600;SDS011;28229;48.856;9.088;2023-05-10T10:10:14;2.00;;;0.70;;
42600;SDS011;28229;48.856;9.088;2023-05-10T10:12:41;0.77;;;0.67;;
42600;SDS011;28229;48.856;9.088;2023-05-10T10:15:08;0.87;;;0.50;;
42600;SDS011;28229;48.856;9.088;2023-05-10T10:17:35;0.93;;;0.60;;
42600;SDS011;28229;48.856;9.088;2023-05-10T10:20:04;0.80;;;0.80;;
42600;SDS011;28229;48.856;9.088;2023-05-10T10:22:30;0.70;;;0.70;;
42600;SDS011;28229;48.856;9.088;2023-05-10T10:24:56;1.57;;;0.50;;
42600;SDS011;28229;48.856;9.088;2023-05-10T10:35:53;0.70;;;0.70;;
42600;SDS011;28229;48.856;9.088;2023-05-10T10:38:22;0.63;;;0.63;;
42600;SDS011;28229;48.856;9.088;2023-05-10T10:40:48;1.17;;;0.70;;
42600;SDS011;28229;48.856;9.088;2023-05-10T10:43:28;0.77;;;0.50;;
42600;SDS011;28229;48.856;9.088;2023-05-10T10:46:10;0.67;;;0.63;;
42600;SDS011;28229;48.856;9.088;2023-05-10T10:48:37;0.80;;;0.70;;
42600;SDS011;28229;48.856;9.088;2023-05-10T10:51:03;0.93;;;0.53;;
42600;SDS011;28229;48.856;9.088;2023-05-10T10:53:29;1.17;;;0.60;;
42600;SDS011;28229;48.856;9.088;2023-05-10T10:56:06;0.77;;;0.60;;
42600;SDS011;28229;48.856;9.088;2023-05-10T10:58:37;1.57;;;0.80;;
42600;SDS011;28229;48.856;9.088;2023-05-10T11:01:14;0.60;;;0.60;;
42600;SDS011;28229;48.856;9.088;2023-05-10T11:04:27;0.93;;;0.70;;
42600;SDS011;28229;48.856;9.088;2023-05-10T11:06:32;1.80;;;0.80;;
42600;SDS011;28229;48.856;9.088;2023-05-10T11:08:59;1.90;;;0.60;;
42600;SDS011;28229;48.856;9.088;2023-05-10T11:11:32;0.60;;;0.60;;
42600;SDS011;28229;48.856;9.088;2023-05-10T11:14:04;0.67;;;0.67;;
42600;SDS011;28229;48.856;9.088;2023-05-10T11:16:41;0.70;;;0.70;;
42600;SDS011;28229;48.856;9.088;2023-05-10T11:19:13;0.80;;;0.70;;
42600;SDS011;28229;48.856;9.088;2023-05-10T11:21:45;0.60;;;0.60;;
42600;SDS011;28229;48.856;9.088;2023-05-10T11:24:19;2.30;;;0.80;;
42600;SDS011;28229;48.856;9.088;2023-05-10T11:26:52;1.50;;;0.83;;
42600;SDS011;28229;48.856;9.088;2023-05-10T11:29:19;0.60;;;0.60;;
42600;SDS011;28229;48.856;9.088;2023-05-10T11:31:46;1.57;;;0.90;;
42600;SDS011;28229;48.856;9.088;2023-05-10T11:34:34;0.93;;;0.80;;
42600;SDS011;28229;48.856;9.088;2023-05-10T11:36:59;0.87;;;0.70;;
42600;SDS011;28229;48.856;9.088;2023-05-10T11:39:29;2.13;;;0.70;;
42600;SDS011;28229;48.856;9.088;2023-05-10T11:41:57;1.47;;;0.80;;
42600;SDS011;28229;48.856;9.088;2023-05-10T11:44:33;0.97;;;0.90;;
42600;SDS011;28229;48.856;9.088;2023-05-10T11:47:02;1.57;;;1.00;;
42600;SDS011;28229;48.856;9.088;2023-05-10T11:49:29;0.80;;;0.80;;
42600;SDS011;28229;48.856;9.088;2023-05-10T11:52:05;1.17;;;0.90;;
42600;SDS011;28229;48.856;9.088;2023-05-10T11:54:34;1.17;;;1.00;;
42600;SDS011;28229;48.856;9.088;2023-05-10T11:57:01;1.53;;;0.97;;
42600;SDS011;28229;48.856;9.088;2023-05-10T11:59:27;1.07;;;0.97;;
42600;SDS011;28229;48.856;9.088;2023-05-10T12:01:53;2.27;;;1.10;;
42600;SDS011;28229;48.856;9.088;2023-05-10T12:04:19;1.00;;;0.90;;
42600;SDS011;28229;48.856;9.088;2023-05-10T12:06:46;1.60;;;0.70;;
42600;SDS011;28229;48.856;9.088;2023-05-10T12:09:12;3.60;;;1.07;;
42600;SDS011;28229;48.856;9.088;2023-05-10T12:11:40;1.40;;;0.90;;
42600;SDS011;28229;48.856;9.088;2023-05-10T12:14:07;0.70;;;0.70;;
42600;SDS011;28229;48.856;9.088;2023-05-10T12:16:34;1.27;;;0.80;;
42600;SDS011;28229;48.856;9.088;2023-05-10T12:19:01;2.00;;;1.20;;
42600;SDS011;28229;48.856;9.088;2023-05-10T12:21:28;1.23;;;0.73;;
42600;SDS011;28229;48.856;9.088;2023-05-10T12:23:59;1.03;;;0.77;;
42600;SDS011;28229;48.856;9.088;2023-05-10T12:26:28;1.37;;;0.90;;
42600;SDS011;28229;48.856;9.088;2023-05-10T12:28:55;1.17;;;0.80;;
42600;SDS011;28229;48.856;9.088;2023-05-10T12:31:53;1.90;;;0.80;;
42600;SDS011;28229;48.856;9.088;2023-05-10T12:34:24;1.83;;;0.77;;
42600;SDS011;28229;48.856;9.088;2023-05-10T12:36:54;3.87;;;1.03;;
42600;SDS011;28229;48.856;9.088;2023-05-10T12:39:21;0.83;;;0.70;;
42600;SDS011;28229;48.856;9.088;2023-05-10T12:41:47;1.57;;;0.87;;
42600;SDS011;28229;48.856;9.088;2023-05-10T12:44:13;1.77;;;0.67;;
42600;SDS011;28229;48.856;9.088;2023-05-10T12:46:39;0.80;;;0.80;;
42600;SDS011;28229;48.856;9.088;2023-05-10T12:49:08;2.23;;;0.77;;
42600;SDS011;28229;48.856;9.088;2023-05-10T12:51:34;0.70;;;0.70;;
42600;SDS011;28229;48.856;9.088;2023-05-10T12:54:02;2.10;;;0.80;;
42600;SDS011;28229;48.856;9.088;2023-05-10T12:56:29;1.50;;;0.90;;
42600;SDS011;28229;48.856;9.088;2023-05-10T12:58:55;0.70;;;0.70;;
42600;SDS011;28229;48.856;9.088;2023-05-10T13:01:21;1.90;;;1.00;;
42600;SDS011;28229;48.856;9.088;2023-05-10T13:03:50;1.20;;;0.93;;
42600;SDS011;28229;48.856;9.088;2023-05-10T13:06:16;1.17;;;0.77;;
42600;SDS011;28229;48.856;9.088;2023-05-10T13:08:43;1.20;;;0.87;;
42600;SDS011;28229;48.856;9.088;2023-05-10T13:11:09;1.33;;;0.90;;
42600;SDS011;28229;48.856;9.088;2023-05-10T13:13:36;2.53;;;0.90;;
42600;SDS011;28229;48.856;9.088;2023-05-10T13:16:02;1.37;;;0.83;;
42600;SDS011;28229;48.856;9.088;2023-05-10T13:18:31;2.87;;;0.80;;
42600;SDS011;28229;48.856;9.088;2023-05-10T13:20:57;0.73;;;0.70;;
42600;SDS011;28229;48.856;9.088;2023-05-10T13:23:23;2.17;;;0.70;;
42600;SDS011;28229;48.856;9.088;2023-05-10T13:25:49;1.53;;;0.70;;
42600;SDS011;28229;48.856;9.088;2023-05-10T13:28:15;2.37;;;1.10;;
42600;SDS011;28229;48.856;9.088;2023-05-10T13:30:41;1.47;;;1.10;;
42600;SDS011;28229;48.856;9.088;2023-05-10T13:33:08;1.13;;;1.00;;
42600;SDS011;28229;48.856;9.088;2023-05-10T13:35:34;1.37;;;0.80;;
42600;SDS011;28229;48.856;9.088;2023-05-10T13:38:00;0.80;;;0.80;;
42600;SDS011;28229;48.856;9.088;2023-05-10T13:40:27;2.70;;;0.93;;
42600;SDS011;28229;48.856;9.088;2023-05-10T13:42:53;1.33;;;0.83;;
42600;SDS011;28229;48.856;9.088;2023-05-10T13:45:20;1.20;;;0.90;;
42600;SDS011;28229;48.856;9.088;2023-05-10T13:47:46;3.90;;;1.03;;
42600;SDS011;28229;48.856;9.088;2023-05-10T13:50:12;2.03;;;0.80;;
42600;SDS011;28229;48.856;9.088;2023-05-10T13:52:39;1.60;;;0.87;;
42600;SDS011;28229;48.856;9.088;2023-05-10T13:55:05;1.63;;;1.10;;
42600;SDS011;28229;48.856;9.088;2023-05-10T13:57:31;2.60;;;0.90;;
42600;SDS011;28229;48.856;9.088;2023-05-10T13:59:57;1.00;;;0.87;;
42600;SDS011;28229;48.856;9.088;2023-05-10T14:02:24;1.63;;;0.63;;
42600;SDS011;28229;48.856;9.088;2023-05-10T14:04:51;2.23;;;0.70;;
42600;SDS011;28229;48.856;9.088;2023-05-10T14:07:17;0.70;;;0.70;;
42600;SDS011;28229;48.856;9.088;2023-05-10T14:09:43;2.17;;;0.90;;
42600;SDS011;28229;48.856;9.088;2023-05-10T14:12:09;1.93;;;0.90;;
42600;SDS011;28229;48.856;9.088;2023-05-10T14:14:36;2.53;;;0.90;;
42600;SDS011;28229;48.856;9.088;2023-05-10T14:17:02;1.70;;;0.87;;
42600;SDS011;28229;48.856;9.088;2023-05-10T14:19:28;0.93;;;0.77;;
42600;SDS011;28229;48.856;9.088;2023-05-10T14:21:58;1.17;;;0.73;;
42600;SDS011;28229;48.856;9.088;2023-05-10T14:24:24;0.87;;;0.70;;
42600;SDS011;28229;48.856;9.088;2023-05-10T14:26:50;0.70;;;0.70;;
42600;SDS011;28229;48.856;9.088;2023-05-10T14:29:20;0.90;;;0.70;;
42600;SDS011;28229;48.856;9.088;2023-05-10T14:31:46;0.80;;;0.80;;
42600;SDS011;28229;48.856;9.088;2023-05-10T14:34:12;0.57;;;0.57;;
42600;SDS011;28229;48.856;9.088;2023-05-10T14:36:38;2.00;;;0.70;;
42600;SDS011;28229;48.856;9.088;2023-05-10T14:39:05;1.37;;;0.80;;
42600;SDS011;28229;48.856;9.088;2023-05-10T14:41:32;0.97;;;0.70;;
42600;SDS011;28229;48.856;9.088;2023-05-10T14:43:58;1.67;;;0.53;;
42600;SDS011;28229;48.856;9.088;2023-05-10T14:46:24;0.93;;;0.73;;
42600;SDS011;28229;48.856;9.088;2023-05-10T14:48:50;2.50;;;0.70;;
42600;SDS011;28229;48.856;9.088;2023-05-10T14:51:16;1.97;;;1.00;;
42600;SDS011;28229;48.856;9.088;2023-05-10T14:53:44;0.70;;;0.70;;
42600;SDS011;28229;48.856;9.088;2023-05-10T14:56:10;0.90;;;0.80;;
42600;SDS011;28229;48.856;9.088;2023-05-10T14:58:36;1.27;;;0.80;;
42600;SDS011;28229;48.856;9.088;2023-05-10T15:01:02;1.00;;;1.00;;
42600;SDS011;28229;48.856;9.088;2023-05-10T15:03:29;0.97;;;0.70;;
42600;SDS011;28229;48.856;9.088;2023-05-10T15:05:55;0.70;;;0.70;;
42600;SDS011;28229;48.856;9.088;2023-05-10T15:08:23;1.60;;;0.70;;
42600;SDS011;28229;48.856;9.088;2023-05-10T15:10:50;0.70;;;0.70;;
42600;SDS011;28229;48.856;9.088;2023-05-10T15:13:17;1.00;;;0.90;;
42600;SDS011;28229;48.856;9.088;2023-05-10T15:15:43;0.80;;;0.70;;
42600;SDS011;28229;48.856;9.088;2023-05-10T15:18:09;1.87;;;0.80;;
42600;SDS011;28229;48.856;9.088;2023-05-10T15:20:36;0.50;;;0.50;;
42600;SDS011;28229;48.856;9.088;2023-05-10T15:23:02;4.03;;;0.70;;
42600;SDS011;28229;48.856;9.088;2023-05-10T15:25:28;1.30;;;0.77;;
42600;SDS011;28229;48.856;9.088;2023-05-10T15:27:54;0.70;;;0.70;;
42600;SDS011;28229;48.856;9.088;2023-05-10T15:30:21;1.13;;;0.80;;